sensor_id;sensor_type;location;lat;lon;timestamp;P1;durP1;ratioP1;P2;durP2;ratioP2
32786;SDS011;19139;49.372;8.580;2023-06-22T00:00:11;4.40;;;4.00;;
32786;SDS011;19139;49.372;8.580;2023-06-22T00:02:38;5.10;;;4.67;;
32786;SDS011;19139;49.372;8.580;2023-06-22T00:05:05;5.27;;;4.50;;
32786;SDS011;19139;49.372;8.580;2023-06-22T00:07:32;5.60;;;5.10;;
32786;SDS011;19139;49.372;8.580;2023-06-22T00:09:58;5.07;;;4.67;;
32786;SDS011;19139;49.372;8.580;2023-06-22T00:12:25;4.90;;;4.50;;
32786;SDS011;19139;49.372;8.580;2023-06-22T00:14:51;4.57;;;4.17;;
32786;SDS011;19139;49.372;8.580;2023-06-22T00:17:18;4.87;;;4.47;;
32786;SDS011;19139;49.372;8.580;2023-06-22T00:19:46;4.57;;;4.17;;
32786;SDS011;19139;49.372;8.580;2023-06-22T00:22:13;4.83;;;4.37;;
32786;SDS011;19139;49.372;8.580;2023-06-22T00:24:40;4.80;;;4.40;;
32786;SDS011;19139;49.372;8.580;2023-06-22T00:27:07;4.53;;;4.13;;
32786;SDS011;19139;49.372;8.580;2023-06-22T00:29:33;5.13;;;4.63;;
32786;SDS011;19139;49.372;8.580;2023-06-22T00:32:00;4.43;;;4.03;;
32786;SDS011;19139;49.372;8.580;2023-06-22T00:34:26;5.17;;;4.67;;
32786;SDS011;19139;49.372;8.580;2023-06-22T00:36:53;5.03;;;4.30;;
32786;SDS011;19139;49.372;8.580;2023-06-22T00:39:20;4.63;;;4.20;;
32786;SDS011;19139;49.372;8.580;2023-06-22T00:41:46;4.60;;;4.20;;
32786;SDS011;19139;49.372;8.580;2023-06-22T00:44:13;4.57;;;4.10;;
32786;SDS011;19139;49.372;8.580;2023-06-22T00:46:39;4.73;;;4.33;;
32786;SDS011;19139;49.372;8.580;2023-06-22T00:49:06;5.43;;;4.77;;
32786;SDS011;19139;49.372;8.580;2023-06-22T00:51:33;5.50;;;5.03;;
32786;SDS011;19139;49.372;8.580;2023-06-22T00:54:02;6.33;;;4.73;;
32786;SDS011;19139;49.372;8.580;2023-06-22T00:56:31;6.23;;;4.47;;
32786;SDS011;19139;49.372;8.580;2023-06-22T00:58:58;5.57;;;5.07;;
32786;SDS011;19139;49.372;8.580;2023-06-22T01:01:26;5.17;;;4.23;;
32786;SDS011;19139;49.372;8.580;2023-06-22T01:03:53;5.40;;;4.73;;
32786;SDS011;19139;49.372;8.580;2023-06-22T01:06:25;5.50;;;4.57;;
32786;SDS011;19139;49.372;8.580;2023-06-22T01:09:02;4.83;;;4.30;;
32786;SDS011;19139;49.372;8.580;2023-06-22T01:11:39;4.87;;;4.47;;
32786;SDS011;19139;49.372;8.580;2023-06-22T01:14:14;5.83;;;4.47;;
32786;SDS011;19139;49.372;8.580;2023-06-22T01:16:47;4.67;;;4.17;;
32786;SDS011;19139;49.372;8.580;2023-06-22T01:19:20;5.30;;;4.80;;
32786;SDS011;19139;49.372;8.580;2023-06-22T01:22:10;5.40;;;4.90;;
32786;SDS011;19139;49.372;8.580;2023-06-22T01:24:42;5.27;;;4.77;;
32786;SDS011;19139;49.372;8.580;2023-06-22T01:29:50;5.20;;;4.70;;
32786;SDS011;19139;49.372;8.580;2023-06-22T01:32:18;5.40;;;4.67;;
32786;SDS011;19139;49.372;8.580;2023-06-22T01:34:46;4.93;;;4.50;;
32786;SDS011;19139;49.372;8.580;2023-06-22T01:37:14;5.13;;;4.63;;
32786;SDS011;19139;49.372;8.580;2023-06-22T01:39:41;5.10;;;4.63;;
32786;SDS011;19139;49.372;8.580;2023-06-22T01:42:08;5.30;;;4.90;;
32786;SDS011;19139;49.372;8.580;2023-06-22T01:44:36;4.77;;;4.37;;
32786;SDS011;19139;49.372;8.580;2023-06-22T01:47:03;6.00;;;5.20;;
32786;SDS011;19139;49.372;8.580;2023-06-22T01:49:31;6.10;;;4.53;;
32786;SDS011;19139;49.372;8.580;2023-06-22T01:51:57;4.73;;;4.27;;
32786;SDS011;19139;49.372;8.580;2023-06-22T01:54:24;4.40;;;4.00;;
32786;SDS011;19139;49.372;8.580;2023-06-22T01:56:51;5.90;;;4.87;;
32786;SDS011;19139;49.372;8.580;2023-06-22T01:59:21;5.87;;;5.37;;
32786;SDS011;19139;49.372;8.580;2023-06-22T02:02:06;5.10;;;4.20;;
32786;SDS011;19139;49.372;8.580;2023-06-22T02:05:09;4.87;;;4.40;;
32786;SDS011;19139;49.372;8.580;2023-06-22T02:07:39;5.43;;;4.63;;
32786;SDS011;19139;49.372;8.580;2023-06-22T02:10:10;6.37;;;4.67;;
32786;SDS011;19139;49.372;8.580;2023-06-22T02:12:40;5.10;;;4.63;;
32786;SDS011;19139;49.372;8.580;2023-06-22T02:15:09;4.90;;;4.40;;
32786;SDS011;19139;49.372;8.580;2023-06-22T02:17:38;4.77;;;4.37;;
32786;SDS011;19139;49.372;8.580;2023-06-22T02:20:05;5.30;;;4.70;;
32786;SDS011;19139;49.372;8.580;2023-06-22T02:22:34;4.43;;;4.03;;
32786;SDS011;19139;49.372;8.580;2023-06-22T02:25:00;5.50;;;5.00;;
32786;SDS011;19139;49.372;8.580;2023-06-22T02:27:27;4.93;;;4.53;;
32786;SDS011;19139;49.372;8.580;2023-06-22T02:29:54;5.20;;;4.43;;
32786;SDS011;19139;49.372;8.580;2023-06-22T02:32:20;4.13;;;3.73;;
32786;SDS011;19139;49.372;8.580;2023-06-22T02:34:47;5.40;;;4.90;;
32786;SDS011;19139;49.372;8.580;2023-06-22T02:37:14;5.57;;;5.07;;
32786;SDS011;19139;49.372;8.580;2023-06-22T02:39:41;5.07;;;4.43;;
32786;SDS011;19139;49.372;8.580;2023-06-22T02:42:07;5.17;;;4.47;;
32786;SDS011;19139;49.372;8.580;2023-06-22T02:44:36;4.43;;;4.00;;
32786;SDS011;19139;49.372;8.580;2023-06-22T02:47:03;5.03;;;4.53;;
32786;SDS011;19139;49.372;8.580;2023-06-22T02:49:30;4.80;;;4.37;;
32786;SDS011;19139;49.372;8.580;2023-06-22T02:51:57;4.87;;;4.40;;
32786;SDS011;19139;49.372;8.580;2023-06-22T02:54:24;4.90;;;4.50;;
32786;SDS011;19139;49.372;8.580;2023-06-22T02:56:50;4.47;;;4.10;;
32786;SDS011;19139;49.372;8.580;2023-06-22T02:59:17;6.20;;;4.90;;
32786;SDS011;19139;49.372;8.580;2023-06-22T03:01:49;4.70;;;4.30;;
32786;SDS011;19139;49.372;8.580;2023-06-22T03:04:16;4.53;;;4.23;;
32786;SDS011;19139;49.372;8.580;2023-06-22T03:06:44;5.17;;;4.33;;
32786;SDS011;19139;49.372;8.580;2023-06-22T03:09:10;5.03;;;4.20;;
32786;SDS011;19139;49.372;8.580;2023-06-22T03:11:37;6.37;;;4.63;;
32786;SDS011;19139;49.372;8.580;2023-06-22T03:14:04;4.23;;;3.83;;
32786;SDS011;19139;49.372;8.580;2023-06-22T03:16:30;4.97;;;4.20;;
32786;SDS011;19139;49.372;8.580;2023-06-22T03:18:57;5.07;;;4.47;;
32786;SDS011;19139;49.372;8.580;2023-06-22T03:21:25;5.53;;;4.80;;
32786;SDS011;19139;49.372;8.580;2023-06-22T03:23:55;4.73;;;4.33;;
32786;SDS011;19139;49.372;8.580;2023-06-22T03:26:22;4.97;;;4.53;;
32786;SDS011;19139;49.372;8.580;2023-06-22T03:28:49;5.33;;;4.93;;
32786;SDS011;19139;49.372;8.580;2023-06-22T03:31:16;4.73;;;4.33;;
32786;SDS011;19139;49.372;8.580;2023-06-22T03:33:48;4.40;;;4.00;;
32786;SDS011;19139;49.372;8.580;2023-06-22T03:36:15;4.47;;;4.07;;
32786;SDS011;19139;49.372;8.580;2023-06-22T03:38:46;4.93;;;4.53;;
32786;SDS011;19139;49.372;8.580;2023-06-22T03:41:13;5.10;;;4.60;;
32786;SDS011;19139;49.372;8.580;2023-06-22T03:43:40;4.77;;;4.37;;
32786;SDS011;19139;49.372;8.580;2023-06-22T03:46:07;4.67;;;4.27;;
32786;SDS011;19139;49.372;8.580;2023-06-22T03:48:34;4.77;;;4.27;;
32786;SDS011;19139;49.372;8.580;2023-06-22T03:51:00;4.63;;;4.23;;
32786;SDS011;19139;49.372;8.580;2023-06-22T03:53:29;4.87;;;4.40;;
32786;SDS011;19139;49.372;8.580;2023-06-22T03:55:56;4.27;;;3.90;;
32786;SDS011;19139;49.372;8.580;2023-06-22T03:58:22;5.97;;;4.23;;
32786;SDS011;19139;49.372;8.580;2023-06-22T04:00:49;4.33;;;3.93;;
32786;SDS011;19139;49.372;8.580;2023-06-22T04:03:18;4.57;;;4.17;;
32786;SDS011;19139;49.372;8.580;2023-06-22T04:05:46;5.47;;;4.97;;
32786;SDS011;19139;49.372;8.580;2023-06-22T04:08:13;4.70;;;4.30;;
32786;SDS011;19139;49.372;8.580;2023-06-22T04:10:40;4.97;;;4.57;;
32786;SDS011;19139;49.372;8.580;2023-06-22T04:13:07;4.87;;;4.47;;
32786;SDS011;19139;49.372;8.580;2023-06-22T04:15:34;4.83;;;4.30;;
32786;SDS011;19139;49.372;8.580;2023-06-22T04:18:01;4.67;;;4.20;;
32786;SDS011;19139;49.372;8.580;2023-06-22T04:20:28;4.87;;;4.47;;
32786;SDS011;19139;49.372;8.580;2023-06-22T04:22:55;4.93;;;4.53;;
32786;SDS011;19139;49.372;8.580;2023-06-22T04:25:22;4.83;;;4.40;;
32786;SDS011;19139;49.372;8.580;2023-06-22T04:27:49;4.17;;;3.77;;
32786;SDS011;19139;49.372;8.580;2023-06-22T04:30:15;4.80;;;4.37;;
32786;SDS011;19139;49.372;8.580;2023-06-22T04:32:43;5.00;;;4.50;;
32786;SDS011;19139;49.372;8.580;2023-06-22T04:35:10;4.70;;;4.30;;
32786;SDS011;19139;49.372;8.580;2023-06-22T04:37:38;6.10;;;4.10;;
32786;SDS011;19139;49.372;8.580;2023-06-22T04:40:05;4.90;;;4.37;;
32786;SDS011;19139;49.372;8.580;2023-06-22T04:42:33;4.53;;;4.13;;
32786;SDS011;19139;49.372;8.580;2023-06-22T04:45:01;4.80;;;4.30;;
32786;SDS011;19139;49.372;8.580;2023-06-22T04:47:27;5.03;;;4.30;;
32786;SDS011;19139;49.372;8.580;2023-06-22T04:49:54;4.53;;;4.13;;
32786;SDS011;19139;49.372;8.580;2023-06-22T04:52:21;4.93;;;4.47;;
32786;SDS011;19139;49.372;8.580;2023-06-22T04:54:48;4.77;;;4.23;;
32786;SDS011;19139;49.372;8.580;2023-06-22T04:57:16;5.57;;;5.07;;
32786;SDS011;19139;49.372;8.580;2023-06-22T04:59:43;5.67;;;5.07;;
32786;SDS011;19139;49.372;8.580;2023-06-22T05:02:10;4.37;;;3.97;;
32786;SDS011;19139;49.372;8.580;2023-06-22T05:04:37;4.60;;;4.20;;
32786;SDS011;19139;49.372;8.580;2023-06-22T05:07:07;4.50;;;4.10;;
32786;SDS011;19139;49.372;8.580;2023-06-22T05:09:34;4.67;;;4.00;;
32786;SDS011;19139;49.372;8.580;2023-06-22T05:12:01;4.50;;;4.10;;
32786;SDS011;19139;49.372;8.580;2023-06-22T05:14:29;5.07;;;4.60;;
32786;SDS011;19139;49.372;8.580;2023-06-22T05:16:56;4.57;;;4.10;;
32786;SDS011;19139;49.372;8.580;2023-06-22T05:19:25;5.13;;;4.63;;
32786;SDS011;19139;49.372;8.580;2023-06-22T05:21:57;4.90;;;4.40;;
32786;SDS011;19139;49.372;8.580;2023-06-22T05:24:24;5.30;;;4.80;;
32786;SDS011;19139;49.372;8.580;2023-06-22T05:27:08;4.67;;;4.27;;
32786;SDS011;19139;49.372;8.580;2023-06-22T05:29:36;4.67;;;4.27;;
32786;SDS011;19139;49.372;8.580;2023-06-22T05:32:20;4.60;;;4.20;;
32786;SDS011;19139;49.372;8.580;2023-06-22T05:34:47;4.40;;;4.00;;
32786;SDS011;19139;49.372;8.580;2023-06-22T05:37:14;19.27;;;10.17;;
32786;SDS011;19139;49.372;8.580;2023-06-22T05:39:40;21.40;;;10.90;;
32786;SDS011;19139;49.372;8.580;2023-06-22T05:42:07;15.03;;;8.53;;
32786;SDS011;19139;49.372;8.580;2023-06-22T05:44:36;10.80;;;8.00;;
32786;SDS011;19139;49.372;8.580;2023-06-22T05:47:04;8.53;;;6.87;;
32786;SDS011;19139;49.372;8.580;2023-06-22T05:49:30;7.33;;;6.53;;
32786;SDS011;19139;49.372;8.580;2023-06-22T05:51:59;6.43;;;5.80;;
32786;SDS011;19139;49.372;8.580;2023-06-22T05:54:29;7.53;;;5.97;;
32786;SDS011;19139;49.372;8.580;2023-06-22T05:56:56;6.37;;;5.77;;
32786;SDS011;19139;49.372;8.580;2023-06-22T05:59:22;6.50;;;5.80;;
32786;SDS011;19139;49.372;8.580;2023-06-22T06:01:49;6.37;;;5.60;;
32786;SDS011;19139;49.372;8.580;2023-06-22T06:04:17;5.63;;;5.00;;
32786;SDS011;19139;49.372;8.580;2023-06-22T06:06:44;6.67;;;6.00;;
32786;SDS011;19139;49.372;8.580;2023-06-22T06:09:14;7.77;;;5.70;;
32786;SDS011;19139;49.372;8.580;2023-06-22T06:11:41;8.23;;;6.70;;
32786;SDS011;19139;49.372;8.580;2023-06-22T06:14:08;6.43;;;5.83;;
32786;SDS011;19139;49.372;8.580;2023-06-22T06:16:34;7.10;;;5.80;;
32786;SDS011;19139;49.372;8.580;2023-06-22T06:19:01;5.93;;;5.43;;
32786;SDS011;19139;49.372;8.580;2023-06-22T06:21:28;7.60;;;5.70;;
32786;SDS011;19139;49.372;8.580;2023-06-22T06:23:56;6.30;;;5.80;;
32786;SDS011;19139;49.372;8.580;2023-06-22T06:26:23;6.33;;;5.73;;
32786;SDS011;19139;49.372;8.580;2023-06-22T06:28:56;7.77;;;6.10;;
32786;SDS011;19139;49.372;8.580;2023-06-22T06:31:23;6.97;;;6.17;;
32786;SDS011;19139;49.372;8.580;2023-06-22T06:33:50;6.67;;;5.87;;
32786;SDS011;19139;49.372;8.580;2023-06-22T06:36:17;6.90;;;6.20;;
32786;SDS011;19139;49.372;8.580;2023-06-22T06:38:43;9.03;;;6.43;;
32786;SDS011;19139;49.372;8.580;2023-06-22T06:41:10;7.27;;;6.57;;
32786;SDS011;19139;49.372;8.580;2023-06-22T06:43:37;7.63;;;6.27;;
32786;SDS011;19139;49.372;8.580;2023-06-22T06:46:03;8.93;;;6.47;;
32786;SDS011;19139;49.372;8.580;2023-06-22T06:48:30;7.53;;;6.80;;
32786;SDS011;19139;49.372;8.580;2023-06-22T06:50:57;7.67;;;5.77;;
32786;SDS011;19139;49.372;8.580;2023-06-22T06:53:24;7.57;;;6.87;;
32786;SDS011;19139;49.372;8.580;2023-06-22T06:55:50;7.57;;;6.73;;
32786;SDS011;19139;49.372;8.580;2023-06-22T06:58:17;7.20;;;6.00;;
32786;SDS011;19139;49.372;8.580;2023-06-22T07:00:44;9.03;;;7.00;;
32786;SDS011;19139;49.372;8.580;2023-06-22T07:03:10;7.63;;;6.67;;
32786;SDS011;19139;49.372;8.580;2023-06-22T07:05:37;7.10;;;6.33;;
32786;SDS011;19139;49.372;8.580;2023-06-22T07:08:04;6.97;;;6.27;;
32786;SDS011;19139;49.372;8.580;2023-06-22T07:10:31;7.40;;;6.70;;
32786;SDS011;19139;49.372;8.580;2023-06-22T07:12:58;10.20;;;6.40;;
32786;SDS011;19139;49.372;8.580;2023-06-22T07:15:24;7.50;;;6.70;;
32786;SDS011;19139;49.372;8.580;2023-06-22T07:17:51;8.03;;;6.13;;
32786;SDS011;19139;49.372;8.580;2023-06-22T07:20:18;7.80;;;7.00;;
32786;SDS011;19139;49.372;8.580;2023-06-22T07:22:45;8.63;;;7.20;;
32786;SDS011;19139;49.372;8.580;2023-06-22T07:25:12;8.63;;;6.97;;
32786;SDS011;19139;49.372;8.580;2023-06-22T07:27:47;10.23;;;7.73;;
32786;SDS011;19139;49.372;8.580;2023-06-22T07:30:24;7.47;;;6.57;;
32786;SDS011;19139;49.372;8.580;2023-06-22T07:32:51;9.90;;;6.97;;
32786;SDS011;19139;49.372;8.580;2023-06-22T07:35:18;9.20;;;7.13;;
32786;SDS011;19139;49.372;8.580;2023-06-22T07:37:45;8.77;;;6.77;;
32786;SDS011;19139;49.372;8.580;2023-06-22T07:40:11;9.23;;;6.77;;
32786;SDS011;19139;49.372;8.580;2023-06-22T07:42:38;9.00;;;7.93;;
32786;SDS011;19139;49.372;8.580;2023-06-22T07:45:05;9.60;;;7.20;;
32786;SDS011;19139;49.372;8.580;2023-06-22T07:47:34;9.13;;;7.20;;
32786;SDS011;19139;49.372;8.580;2023-06-22T07:50:04;11.17;;;6.67;;
32786;SDS011;19139;49.372;8.580;2023-06-22T07:52:32;7.37;;;6.67;;
32786;SDS011;19139;49.372;8.580;2023-06-22T07:54:59;7.17;;;6.47;;
32786;SDS011;19139;49.372;8.580;2023-06-22T07:57:25;8.30;;;6.87;;
32786;SDS011;19139;49.372;8.580;2023-06-22T08:00:00;7.73;;;6.50;;
32786;SDS011;19139;49.372;8.580;2023-06-22T08:02:30;7.47;;;6.67;;
32786;SDS011;19139;49.372;8.580;2023-06-22T08:04:57;7.60;;;6.50;;
32786;SDS011;19139;49.372;8.580;2023-06-22T08:07:43;9.73;;;7.47;;
32786;SDS011;19139;49.372;8.580;2023-06-22T08:10:13;8.67;;;7.07;;
32786;SDS011;19139;49.372;8.580;2023-06-22T08:12:40;7.50;;;6.70;;
32786;SDS011;19139;49.372;8.580;2023-06-22T08:15:07;8.10;;;6.73;;
32786;SDS011;19139;49.372;8.580;2023-06-22T08:17:34;6.70;;;5.50;;
32786;SDS011;19139;49.372;8.580;2023-06-22T08:20:01;7.67;;;6.60;;
32786;SDS011;19139;49.372;8.580;2023-06-22T08:22:29;7.13;;;6.43;;
32786;SDS011;19139;49.372;8.580;2023-06-22T08:24:56;6.97;;;6.27;;
32786;SDS011;19139;49.372;8.580;2023-06-22T08:27:23;7.93;;;7.13;;
32786;SDS011;19139;49.372;8.580;2023-06-22T08:29:49;7.37;;;6.67;;
32786;SDS011;19139;49.372;8.580;2023-06-22T08:32:17;8.07;;;7.27;;
32786;SDS011;19139;49.372;8.580;2023-06-22T08:34:44;7.87;;;6.00;;
32786;SDS011;19139;49.372;8.580;2023-06-22T08:37:10;6.87;;;6.27;;
32786;SDS011;19139;49.372;8.580;2023-06-22T08:39:37;6.73;;;6.13;;
32786;SDS011;19139;49.372;8.580;2023-06-22T08:42:05;6.93;;;6.00;;
32786;SDS011;19139;49.372;8.580;2023-06-22T08:44:32;8.63;;;6.30;;
32786;SDS011;19139;49.372;8.580;2023-06-22T08:46:59;6.40;;;5.80;;
32786;SDS011;19139;49.372;8.580;2023-06-22T08:49:25;6.63;;;5.97;;
32786;SDS011;19139;49.372;8.580;2023-06-22T08:51:52;7.00;;;5.43;;
32786;SDS011;19139;49.372;8.580;2023-06-22T08:54:20;9.43;;;6.80;;
32786;SDS011;19139;49.372;8.580;2023-06-22T08:56:47;6.53;;;5.80;;
32786;SDS011;19139;49.372;8.580;2023-06-22T08:59:14;6.63;;;5.93;;
32786;SDS011;19139;49.372;8.580;2023-06-22T09:01:40;6.20;;;5.60;;
32786;SDS011;19139;49.372;8.580;2023-06-22T09:04:11;5.90;;;5.30;;
32786;SDS011;19139;49.372;8.580;2023-06-22T09:06:38;6.70;;;6.10;;
32786;SDS011;19139;49.372;8.580;2023-06-22T09:09:12;6.23;;;5.47;;
32786;SDS011;19139;49.372;8.580;2023-06-22T09:11:39;6.30;;;5.70;;
32786;SDS011;19139;49.372;8.580;2023-06-22T09:14:05;6.87;;;6.17;;
32786;SDS011;19139;49.372;8.580;2023-06-22T09:16:32;6.27;;;5.67;;
32786;SDS011;19139;49.372;8.580;2023-06-22T09:19:00;6.40;;;5.80;;
32786;SDS011;19139;49.372;8.580;2023-06-22T09:21:27;7.50;;;5.40;;
32786;SDS011;19139;49.372;8.580;2023-06-22T09:23:53;6.40;;;5.80;;
32786;SDS011;19139;49.372;8.580;2023-06-22T09:26:20;5.70;;;5.20;;
32786;SDS011;19139;49.372;8.580;2023-06-22T09:28:48;7.33;;;6.00;;
32786;SDS011;19139;49.372;8.580;2023-06-22T09:31:15;6.10;;;5.50;;
32786;SDS011;19139;49.372;8.580;2023-06-22T09:33:43;6.57;;;5.97;;
32786;SDS011;19139;49.372;8.580;2023-06-22T09:36:10;6.40;;;5.80;;
32786;SDS011;19139;49.372;8.580;2023-06-22T09:38:37;7.20;;;6.50;;
32786;SDS011;19139;49.372;8.580;2023-06-22T09:41:04;6.33;;;5.70;;
32786;SDS011;19139;49.372;8.580;2023-06-22T09:43:31;6.60;;;6.00;;
32786;SDS011;19139;49.372;8.580;2023-06-22T09:46:01;6.27;;;5.67;;
32786;SDS011;19139;49.372;8.580;2023-06-22T09:48:28;6.03;;;5.43;;
32786;SDS011;19139;49.372;8.580;2023-06-22T09:50:56;5.50;;;5.00;;
32786;SDS011;19139;49.372;8.580;2023-06-22T09:53:23;6.23;;;5.70;;
32786;SDS011;19139;49.372;8.580;2023-06-22T09:55:49;6.70;;;5.30;;
32786;SDS011;19139;49.372;8.580;2023-06-22T09:58:16;6.97;;;5.27;;
32786;SDS011;19139;49.372;8.580;2023-06-22T10:00:43;5.77;;;5.27;;
32786;SDS011;19139;49.372;8.580;2023-06-22T10:03:09;6.07;;;5.47;;
32786;SDS011;19139;49.372;8.580;2023-06-22T10:05:36;6.57;;;5.97;;
32786;SDS011;19139;49.372;8.580;2023-06-22T10:08:03;6.27;;;5.67;;
32786;SDS011;19139;49.372;8.580;2023-06-22T10:10:29;6.23;;;5.60;;
32786;SDS011;19139;49.372;8.580;2023-06-22T10:12:56;5.80;;;5.20;;
32786;SDS011;19139;49.372;8.580;2023-06-22T10:15:28;6.77;;;6.07;;
32786;SDS011;19139;49.372;8.580;2023-06-22T10:17:55;5.40;;;4.90;;
32786;SDS011;19139;49.372;8.580;2023-06-22T10:20:22;5.77;;;5.23;;
32786;SDS011;19139;49.372;8.580;2023-06-22T10:22:49;6.50;;;5.63;;
32786;SDS011;19139;49.372;8.580;2023-06-22T10:25:17;6.37;;;5.33;;
32786;SDS011;19139;49.372;8.580;2023-06-22T10:27:44;5.40;;;4.90;;
32786;SDS011;19139;49.372;8.580;2023-06-22T10:30:11;5.97;;;5.40;;
32786;SDS011;19139;49.372;8.580;2023-06-22T10:32:42;7.07;;;6.40;;
32786;SDS011;19139;49.372;8.580;2023-06-22T10:35:09;6.43;;;5.60;;
32786;SDS011;19139;49.372;8.580;2023-06-22T10:37:36;6.27;;;5.67;;
32786;SDS011;19139;49.372;8.580;2023-06-22T10:40:04;5.73;;;5.23;;
32786;SDS011;19139;49.372;8.580;2023-06-22T10:42:31;6.00;;;5.30;;
32786;SDS011;19139;49.372;8.580;2023-06-22T10:44:58;6.63;;;5.80;;
32786;SDS011;19139;49.372;8.580;2023-06-22T10:47:25;6.40;;;5.80;;
32786;SDS011;19139;49.372;8.580;2023-06-22T10:49:51;5.20;;;4.70;;
32786;SDS011;19139;49.372;8.580;2023-06-22T10:52:18;6.50;;;5.27;;
32786;SDS011;19139;49.372;8.580;2023-06-22T10:54:44;5.80;;;5.07;;
32786;SDS011;19139;49.372;8.580;2023-06-22T10:57:11;6.00;;;5.50;;
32786;SDS011;19139;49.372;8.580;2023-06-22T10:59:38;6.30;;;5.70;;
32786;SDS011;19139;49.372;8.580;2023-06-22T11:02:04;6.93;;;5.57;;
32786;SDS011;19139;49.372;8.580;2023-06-22T11:04:31;8.57;;;5.50;;
32786;SDS011;19139;49.372;8.580;2023-06-22T11:06:58;6.10;;;5.27;;
32786;SDS011;19139;49.372;8.580;2023-06-22T11:09:25;5.60;;;5.10;;
32786;SDS011;19139;49.372;8.580;2023-06-22T11:11:55;7.17;;;5.77;;
32786;SDS011;19139;49.372;8.580;2023-06-22T11:14:22;6.20;;;5.60;;
32786;SDS011;19139;49.372;8.580;2023-06-22T11:16:49;5.47;;;4.97;;
32786;SDS011;19139;49.372;8.580;2023-06-22T11:19:15;5.90;;;5.17;;
32786;SDS011;19139;49.372;8.580;2023-06-22T11:21:42;5.90;;;5.30;;
32786;SDS011;19139;49.372;8.580;2023-06-22T11:24:09;5.93;;;5.43;;
32786;SDS011;19139;49.372;8.580;2023-06-22T11:26:35;6.27;;;5.67;;
32786;SDS011;19139;49.372;8.580;2023-06-22T11:29:03;8.80;;;5.90;;
32786;SDS011;19139;49.372;8.580;2023-06-22T11:31:37;5.67;;;5.17;;
32786;SDS011;19139;49.372;8.580;2023-06-22T11:34:04;5.57;;;5.07;;
32786;SDS011;19139;49.372;8.580;2023-06-22T11:36:31;6.57;;;5.33;;
32786;SDS011;19139;49.372;8.580;2023-06-22T11:38:59;6.67;;;5.83;;
32786;SDS011;19139;49.372;8.580;2023-06-22T11:41:26;5.63;;;5.13;;
32786;SDS011;19139;49.372;8.580;2023-06-22T11:43:52;6.67;;;5.80;;
32786;SDS011;19139;49.372;8.580;2023-06-22T11:46:19;6.77;;;6.10;;
32786;SDS011;19139;49.372;8.580;2023-06-22T11:48:46;8.60;;;5.87;;
32786;SDS011;19139;49.372;8.580;2023-06-22T11:51:13;5.73;;;5.13;;
32786;SDS011;19139;49.372;8.580;2023-06-22T11:53:39;5.57;;;4.90;;
32786;SDS011;19139;49.372;8.580;2023-06-22T11:56:06;6.23;;;5.10;;
32786;SDS011;19139;49.372;8.580;2023-06-22T11:58:34;6.27;;;5.20;;
32786;SDS011;19139;49.372;8.580;2023-06-22T12:01:01;5.67;;;4.97;;
32786;SDS011;19139;49.372;8.580;2023-06-22T12:03:28;5.73;;;4.93;;
32786;SDS011;19139;49.372;8.580;2023-06-22T12:05:55;6.33;;;5.73;;
32786;SDS011;19139;49.372;8.580;2023-06-22T12:08:22;5.90;;;4.70;;
32786;SDS011;19139;49.372;8.580;2023-06-22T12:10:49;6.87;;;5.27;;
32786;SDS011;19139;49.372;8.580;2023-06-22T12:13:16;5.57;;;4.97;;
32786;SDS011;19139;49.372;8.580;2023-06-22T12:15:43;6.93;;;5.10;;
32786;SDS011;19139;49.372;8.580;2023-06-22T12:18:10;5.70;;;5.10;;
32786;SDS011;19139;49.372;8.580;2023-06-22T12:20:37;5.70;;;5.20;;
32786;SDS011;19139;49.372;8.580;2023-06-22T12:23:03;6.50;;;5.73;;
32786;SDS011;19139;49.372;8.580;2023-06-22T12:25:30;6.50;;;4.37;;
32786;SDS011;19139;49.372;8.580;2023-06-22T12:27:57;6.43;;;5.07;;
32786;SDS011;19139;49.372;8.580;2023-06-22T12:30:23;5.67;;;5.10;;
32786;SDS011;19139;49.372;8.580;2023-06-22T12:32:50;5.40;;;4.97;;
32786;SDS011;19139;49.372;8.580;2023-06-22T12:35:17;5.33;;;4.83;;
32786;SDS011;19139;49.372;8.580;2023-06-22T12:37:44;5.70;;;5.13;;
32786;SDS011;19139;49.372;8.580;2023-06-22T12:40:11;6.60;;;5.23;;
32786;SDS011;19139;49.372;8.580;2023-06-22T12:42:37;6.07;;;5.13;;
32786;SDS011;19139;49.372;8.580;2023-06-22T12:45:04;6.37;;;5.27;;
32786;SDS011;19139;49.372;8.580;2023-06-22T12:47:31;5.47;;;4.97;;
32786;SDS011;19139;49.372;8.580;2023-06-22T12:49:58;5.70;;;5.20;;
32786;SDS011;19139;49.372;8.580;2023-06-22T12:52:25;6.43;;;5.70;;
32786;SDS011;19139;49.372;8.580;2023-06-22T12:54:51;7.07;;;4.60;;
32786;SDS011;19139;49.372;8.580;2023-06-22T12:57:21;7.00;;;5.03;;
32786;SDS011;19139;49.372;8.580;2023-06-22T12:59:48;5.23;;;4.67;;
32786;SDS011;19139;49.372;8.580;2023-06-22T13:02:15;5.77;;;5.17;;
32786;SDS011;19139;49.372;8.580;2023-06-22T13:04:41;7.47;;;5.43;;
32786;SDS011;19139;49.372;8.580;2023-06-22T13:07:09;6.10;;;5.17;;
32786;SDS011;19139;49.372;8.580;2023-06-22T13:09:48;5.77;;;5.27;;
32786;SDS011;19139;49.372;8.580;2023-06-22T13:12:19;6.77;;;5.30;;
32786;SDS011;19139;49.372;8.580;2023-06-22T13:14:48;6.00;;;5.40;;
32786;SDS011;19139;49.372;8.580;2023-06-22T13:17:15;7.87;;;5.70;;
32786;SDS011;19139;49.372;8.580;2023-06-22T13:19:42;10.30;;;6.20;;
32786;SDS011;19139;49.372;8.580;2023-06-22T13:22:25;5.50;;;4.83;;
32786;SDS011;19139;49.372;8.580;2023-06-22T13:24:54;6.07;;;5.50;;
32786;SDS011;19139;49.372;8.580;2023-06-22T13:27:21;6.97;;;5.47;;
32786;SDS011;19139;49.372;8.580;2023-06-22T13:29:48;6.00;;;5.27;;
32786;SDS011;19139;49.372;8.580;2023-06-22T13:32:33;7.97;;;6.07;;
32786;SDS011;19139;49.372;8.580;2023-06-22T13:35:00;6.47;;;5.87;;
32786;SDS011;19139;49.372;8.580;2023-06-22T13:37:27;6.80;;;5.20;;
32786;SDS011;19139;49.372;8.580;2023-06-22T13:39:53;5.37;;;4.93;;
32786;SDS011;19139;49.372;8.580;2023-06-22T13:42:39;8.17;;;5.20;;
32786;SDS011;19139;49.372;8.580;2023-06-22T13:45:24;6.47;;;5.53;;
32786;SDS011;19139;49.372;8.580;2023-06-22T13:48:08;6.63;;;5.40;;
32786;SDS011;19139;49.372;8.580;2023-06-22T13:50:53;6.70;;;5.77;;
32786;SDS011;19139;49.372;8.580;2023-06-22T13:53:19;5.43;;;4.93;;
32786;SDS011;19139;49.372;8.580;2023-06-22T13:55:46;6.13;;;5.10;;
32786;SDS011;19139;49.372;8.580;2023-06-22T13:58:13;6.47;;;5.73;;
32786;SDS011;19139;49.372;8.580;2023-06-22T14:00:40;6.20;;;4.97;;
32786;SDS011;19139;49.372;8.580;2023-06-22T14:03:07;6.80;;;5.20;;
32786;SDS011;19139;49.372;8.580;2023-06-22T14:05:33;5.80;;;5.20;;
32786;SDS011;19139;49.372;8.580;2023-06-22T14:08:00;6.83;;;6.07;;
32786;SDS011;19139;49.372;8.580;2023-06-22T14:10:27;5.77;;;5.17;;
32786;SDS011;19139;49.372;8.580;2023-06-22T14:12:54;7.77;;;6.07;;
32786;SDS011;19139;49.372;8.580;2023-06-22T14:15:21;6.10;;;5.40;;
32786;SDS011;19139;49.372;8.580;2023-06-22T14:17:48;5.90;;;5.30;;
32786;SDS011;19139;49.372;8.580;2023-06-22T14:20:15;9.63;;;6.23;;
32786;SDS011;19139;49.372;8.580;2023-06-22T14:22:42;5.87;;;5.37;;
32786;SDS011;19139;49.372;8.580;2023-06-22T14:25:08;10.43;;;5.67;;
32786;SDS011;19139;49.372;8.580;2023-06-22T14:27:35;6.33;;;5.27;;
32786;SDS011;19139;49.372;8.580;2023-06-22T14:30:02;6.47;;;5.00;;
32786;SDS011;19139;49.372;8.580;2023-06-22T14:32:32;6.40;;;5.20;;
32786;SDS011;19139;49.372;8.580;2023-06-22T14:34:58;6.43;;;5.40;;
32786;SDS011;19139;49.372;8.580;2023-06-22T14:37:25;6.00;;;5.30;;
32786;SDS011;19139;49.372;8.580;2023-06-22T14:39:52;6.13;;;5.50;;
32786;SDS011;19139;49.372;8.580;2023-06-22T14:42:18;7.30;;;5.73;;
32786;SDS011;19139;49.372;8.580;2023-06-22T14:44:45;6.53;;;5.60;;
32786;SDS011;19139;49.372;8.580;2023-06-22T14:47:12;7.37;;;5.80;;
32786;SDS011;19139;49.372;8.580;2023-06-22T14:49:38;6.70;;;6.00;;
32786;SDS011;19139;49.372;8.580;2023-06-22T14:52:05;7.83;;;5.93;;
32786;SDS011;19139;49.372;8.580;2023-06-22T14:54:33;6.80;;;6.03;;